Gesamt
Bourke Airport (Bourke, New South Wales) BRK Wetter
|
Bourke, New South Wales (BRK / YBKE)
Klarer Himmel
Leichter Wind |
|
13 °C |
BRK Terminal Area Forecast
| Date | Time (AEST) | Flight Rules | Wind Dir. | Speed | Type | Height AGL (ft) | Visibility | Remarks | ||||||
|---|---|---|---|---|---|---|---|---|---|---|---|---|---|---|
| 04-Mai | 23:00 | VFR | 240° | 10 kt | Clouds and Visibility are OK | >= 6 miles | ||||||||
Kürzlicher METAR-Verlauf für BRK
| Date | Time (AEST) | Flight Rules | Wind Dir. | Speed | Type | Height AGL (ft) | Visibility | Temp (°C) | Temp (°F) | Dew Point (°C) | Dew Point (°F) | Rel. Humid. | Pressure | Density Altitude | Remarks |
|---|---|---|---|---|---|---|---|---|---|---|---|---|---|---|---|
| 04-Mai | 23:00 | n/a | 250° | 4 kt | Missing | 13° | 55° | 11° | 51° | 88% | 1019 mb | -59 ft | |||
| 04-Mai | 22:00 | n/a | 240° | 3 kt | Missing | 15° | 59° | 11° | 51° | 77% | 1019 mb | 181 ft | |||
| 04-Mai | 21:00 | n/a | 240° | 4 kt | Missing | 16° | 60° | 13° | 55° | 82% | 1018 mb | 330 ft | |||
| 04-Mai | 20:00 | n/a | 210° | 3 kt | Missing | 16° | 60° | 13° | 55° | 82% | 1018 mb | 330 ft | |||
| 04-Mai | 19:00 | n/a | 230° | 2 kt | Missing | 17° | 62° | 12° | 53° | 72% | 1017 mb | 480 ft | |||
| 04-Mai | 18:00 | n/a | 240° | 5 kt | Missing | 19° | 66° | 11° | 51° | 60% | 1017 mb | 720 ft | |||
| 04-Mai | 17:00 | n/a | 240° | 7 kt | Missing | 19° | 66° | 12° | 53° | 64% | 1016 mb | 750 ft | |||
| 04-Mai | 16:00 | n/a | 240° | 6 kt | Missing | 20° | 68° | 13° | 55° | 64% | 1016 mb | 870 ft | |||
| 04-Mai | 15:00 | n/a | 220° | 7 kt | Missing | 19° | 66° | 14° | 57° | 73% | 1015 mb | 779 ft | |||
| 04-Mai | 14:00 | n/a | 250° | 8 kt | Missing | 19° | 66° | 15° | 59° | 78% | 1016 mb | 750 ft | |||
| 04-Mai | 13:00 | n/a | 250° | 8 kt | Missing | 18° | 64° | 14° | 57° | 77% | 1016 mb | 630 ft | |||
| 04-Mai | 12:00 | n/a | 240° | 6 kt | Missing | 20° | 68° | 16° | 60° | 78% | 1017 mb | 840 ft | |||
| 04-Mai | 11:00 | n/a | 230° | 7 kt | Missing | 19° | 66° | 16° | 60° | 83% | 1017 mb | 720 ft | |||
| 04-Mai | 10:00 | n/a | 220° | 10 kt | Missing | 17° | 62° | 16° | 60° | 94% | 1017 mb | 480 ft | |||
| 04-Mai | 09:00 | n/a | 260° | 2 kt | Missing | 19° | 66° | 18° | 64° | 94% | 1017 mb | 720 ft | |||
| 04-Mai | 08:00 | n/a | 280° | 4 kt | Missing | 18° | 64° | 18° | 64° | 100% | 1017 mb | 600 ft | |||
| 04-Mai | 07:00 | n/a | 230° | 2 kt | Missing | 18° | 64° | 17° | 62° | 94% | 1016 mb | 630 ft | |||
| 04-Mai | 06:00 | n/a | Calm | Missing | 18° | 64° | 17° | 62° | 94% | 1015 mb | 659 ft | ||||
| 04-Mai | 05:00 | n/a | 190° | 1 kt | Missing | 18° | 64° | 17° | 62° | 94% | 1015 mb | 659 ft | |||
| 04-Mai | 04:00 | n/a | 160° | 3 kt | Missing | 18° | 64° | 18° | 64° | 100% | 1015 mb | 659 ft | |||
| 04-Mai | 03:00 | n/a | 70° | 3 kt | Missing | 18° | 64° | 18° | 64° | 100% | 1015 mb | 659 ft | |||
| 04-Mai | 02:00 | n/a | 50° | 2 kt | Missing | 18° | 64° | 18° | 64° | 100% | 1016 mb | 630 ft | |||
| 04-Mai | 01:00 | n/a | 150° | 3 kt | Missing | 18° | 64° | 18° | 64° | 100% | 1016 mb | 630 ft | |||
| 04-Mai | 00:00 | n/a | 260° | 3 kt | Missing | 19° | 66° | 17° | 62° | 88% | 1017 mb | 720 ft |
Anmelden
| Ihr Browser wird nicht unterstützt. aktualisieren Sie Ihren Browser |
